Acme, Canada
Current Conditions -  °F | °C
As of 3:00 AM on Friday 31 Oct 2014 (Local Time) from CYYC Reporting Station
Scattered Clouds Scattered Clouds  
Wind Chill: 35°   Ceiling: Unl
Heat Index: 41°   Visibility: 15mi
Dew Point: 34°   Wind: 9mph
Humidity: 76%   Direction: 190°S
Pressure: 29.76"   Gusts: 17mph
Location:  51.5°N, 113.5°W
Report Text: CYYC 310900Z 19008G15KT 15SM SCT220 05/01 A2976 RMK CI3 SLP113
Loading
Personal Weather Stations






























Interactive Weather Map
Tropical Storm Tracking
New forecast layout! Learn more

10-Day Weather Forecast

Advertisements
Track Severe Weather on mobile